Time;durP1;ratioP1;P1;durP2;ratioP2;P2;SDS_P1;SDS_P2;PMS_P1;PMS_P2;Temp;Humidity;BMP_temperature;BMP_pressure;BME280_temperature;BME280_humidity;BME280_pressure;Samples;Min_cycle;Max_cycle;Signal;HPM_P1;HPM_P2
2022/08/05 00:02:18;;;;;;;15.38;3.97;;;;;;;20.67;77.37;100891.78;5116172;28;20061;-55
2022/08/05 00:04:45;;;;;;;12.18;4.22;;;;;;;20.66;76.64;100890.09;5115199;28;20035;-55
2022/08/05 00:07:12;;;;;;;17.00;4.30;;;;;;;20.65;77.17;100885.78;5116173;28;20096;-55
2022/08/05 00:09:39;;;;;;;12.70;4.22;;;;;;;20.70;78.86;100875.19;5115898;28;20082;-56
2022/08/05 00:12:06;;;;;;;13.90;4.20;;;;;;;20.68;77.71;100890.75;5115350;28;20093;-55
2022/08/05 00:14:33;;;;;;;14.00;4.10;;;;;;;20.62;76.61;100896.16;5115672;28;20454;-55
2022/08/05 00:16:59;;;;;;;12.65;4.30;;;;;;;20.46;77.31;100892.06;5115740;28;20047;-56
2022/08/05 00:19:26;;;;;;;12.07;3.97;;;;;;;20.52;76.45;100885.84;5105449;28;20043;-56
2022/08/05 00:21:53;;;;;;;14.35;4.18;;;;;;;20.61;76.78;100898.03;5094040;28;20044;-56
2022/08/05 00:24:19;;;;;;;15.43;4.60;;;;;;;20.62;78.41;100898.84;5094258;28;20044;-56
2022/08/05 00:26:46;;;;;;;13.65;4.05;;;;;;;20.43;77.38;100892.50;5095112;28;20054;-56
2022/08/05 00:29:13;;;;;;;13.48;4.32;;;;;;;20.46;79.04;100886.69;5095173;28;20052;-56
2022/08/05 00:31:40;;;;;;;11.80;4.35;;;;;;;20.41;78.94;100892.72;5094415;28;20517;-56
2022/08/05 00:34:07;;;;;;;12.65;4.60;;;;;;;20.36;78.82;100895.25;5095131;28;20493;-56
2022/08/05 00:36:34;;;;;;;14.45;4.40;;;;;;;20.29;78.88;100897.13;5094786;28;20040;-55
2022/08/05 00:39:01;;;;;;;12.73;4.15;;;;;;;20.30;79.29;100891.53;5093935;28;20093;-56
2022/08/05 00:41:30;;;;;;;12.75;4.47;;;;;;;20.25;78.66;100877.88;5094790;28;20074;-56
2022/08/05 00:43:57;;;;;;;13.52;4.75;;;;;;;20.21;79.76;100876.66;5094856;28;20142;-56
2022/08/05 00:46:24;;;;;;;12.40;5.03;;;;;;;20.05;80.06;100871.78;5093678;28;20048;-56
2022/08/05 00:48:51;;;;;;;19.85;5.40;;;;;;;20.02;80.32;100880.28;5094769;28;20044;-56
2022/08/05 00:51:19;;;;;;;18.05;5.07;;;;;;;19.97;80.79;100880.91;5094761;28;20490;-56
2022/08/05 00:53:46;;;;;;;15.95;4.85;;;;;;;19.99;80.78;100886.06;5094670;28;20047;-56
2022/08/05 00:56:15;;;;;;;20.13;4.88;;;;;;;19.97;80.93;100890.84;5094670;28;20452;-55
2022/08/05 00:58:42;;;;;;;14.38;5.07;;;;;;;19.96;81.92;100891.91;5094455;28;20044;-55
2022/08/05 01:01:10;;;;;;;13.90;5.50;;;;;;;19.77;81.96;100897.09;5093959;28;20055;-56
2022/08/05 01:03:38;;;;;;;13.43;5.30;;;;;;;19.81;82.42;100900.19;5094446;28;20493;-56
2022/08/05 01:06:06;;;;;;;17.75;6.03;;;;;;;19.84;82.70;100903.31;5094683;28;20044;-56
2022/08/05 01:08:33;;;;;;;18.58;6.07;;;;;;;19.77;83.11;100897.09;5094428;28;20104;-56
2022/08/05 01:11:10;;;;;;;18.85;6.40;;;;;;;19.72;83.70;100896.91;5094246;28;20059;-55
2022/08/05 01:13:48;;;;;;;21.00;6.90;;;;;;;19.66;84.05;100884.28;5094109;28;20042;-56
2022/08/05 01:16:23;;;;;;;17.08;6.97;;;;;;;19.69;84.75;100892.75;5093184;28;20432;-56
2022/08/05 01:18:56;;;;;;;16.55;6.88;;;;;;;19.70;84.43;100897.13;5094161;28;20094;-56
2022/08/05 01:21:51;;;;;;;19.42;7.78;;;;;;;19.76;85.55;100895.47;5093739;28;20128;-56
2022/08/05 01:24:43;;;;;;;19.35;7.95;;;;;;;19.70;84.61;100898.94;5094149;28;20070;-56
2022/08/05 01:27:50;;;;;;;20.95;8.00;;;;;;;19.64;85.09;100889.03;5094259;28;20052;-55
2022/08/05 01:30:17;;;;;;;22.17;8.90;;;;;;;19.68;85.23;100888.44;5093496;28;20051;-56
2022/08/05 01:32:48;;;;;;;22.50;9.48;;;;;;;19.61;85.18;100887.63;5102520;28;20055;-55
2022/08/05 01:35:21;;;;;;;20.88;9.07;;;;;;;19.67;85.41;100894.84;5113530;28;20047;-56
2022/08/05 01:37:53;;;;;;;24.50;9.40;;;;;;;19.58;85.57;100906.84;5113526;28;20500;-56
2022/08/05 01:40:25;;;;;;;23.60;8.50;;;;;;;19.70;85.28;100918.63;5114144;28;20051;-55
2022/08/05 01:42:54;;;;;;;19.63;8.88;;;;;;;19.76;84.91;100922.38;5114187;28;20047;-56
2022/08/05 01:45:23;;;;;;;22.05;8.90;;;;;;;19.82;84.56;100921.53;5114120;28;20078;-56
2022/08/05 01:47:53;;;;;;;22.70;9.23;;;;;;;19.83;84.72;100912.44;5114221;28;20055;-55
2022/08/05 01:50:26;;;;;;;24.50;9.77;;;;;;;19.66;85.00;100933.53;5112522;28;20046;-56
2022/08/05 01:52:56;;;;;;;20.45;9.57;;;;;;;19.55;85.80;100943.09;5114223;28;20044;-55
2022/08/05 01:55:26;;;;;;;31.80;10.60;;;;;;;19.59;86.95;100964.19;5114045;28;20122;-56
2022/08/05 01:57:54;;;;;;;27.38;10.80;;;;;;;19.69;86.75;100983.44;5114041;28;20043;-56
2022/08/05 02:00:21;;;;;;;23.73;9.93;;;;;;;19.60;87.42;101006.22;5113540;28;20044;-56
2022/08/05 02:02:55;;;;;;;25.70;10.40;;;;;;;19.65;86.39;101020.69;5114251;28;20101;-55
2022/08/05 02:05:27;;;;;;;21.27;9.05;;;;;;;19.62;86.55;101015.72;5112967;28;20040;-56
2022/08/05 02:07:56;;;;;;;19.85;9.48;;;;;;;19.48;87.03;101022.13;5114173;28;20052;-56
2022/08/05 02:10:26;;;;;;;23.52;9.98;;;;;;;19.47;87.40;101023.19;5112341;28;20047;-56
2022/08/05 02:13:00;;;;;;;21.38;9.93;;;;;;;19.49;88.49;101024.63;5113798;28;20051;-56
2022/08/05 02:15:33;;;;;;;21.88;9.98;;;;;;;19.52;90.88;101012.63;5113678;28;20040;-56
2022/08/05 02:18:06;;;;;;;27.33;9.77;;;;;;;19.35;91.29;101004.13;5113956;28;20052;-59
2022/08/05 02:20:46;;;;;;;25.90;11.68;;;;;;;19.09;93.84;100992.28;5094231;28;20036;-56
2022/08/05 02:23:16;;;;;;;27.00;13.10;;;;;;;19.03;94.06;100984.22;5093350;28;20043;-56
2022/08/05 02:25:44;;;;;;;30.63;14.23;;;;;;;19.03;97.58;100989.59;5092275;28;20044;-56
2022/08/05 02:28:13;;;;;;;24.73;13.18;;;;;;;18.94;96.27;100997.03;5093299;28;20078;-56
2022/08/05 02:30:45;;;;;;;26.73;14.23;;;;;;;19.02;97.58;101014.81;5093055;28;20044;-57
2022/08/05 02:33:17;;;;;;;25.58;13.13;;;;;;;18.82;96.79;101017.47;5094817;28;20160;-57
2022/08/05 02:35:45;;;;;;;30.58;13.40;;;;;;;18.88;97.90;101035.47;5097550;28;20043;-56
2022/08/05 02:38:13;;;;;;;28.70;13.40;;;;;;;18.83;97.34;101030.69;5097131;28;20082;-56
2022/08/05 02:40:42;;;;;;;28.30;14.93;;;;;;;18.76;97.86;101030.63;5096979;28;20436;-56
2022/08/05 02:43:12;;;;;;;28.65;15.35;;;;;;;18.79;96.48;101049.06;5097312;28;20101;-55
2022/08/05 02:45:41;;;;;;;27.77;14.80;;;;;;;18.67;96.24;101047.16;5097117;28;20493;-56
2022/08/05 02:48:09;;;;;;;30.40;16.20;;;;;;;18.69;96.87;101042.41;5096763;28;20040;-57
2022/08/05 02:50:37;;;;;;;27.10;15.73;;;;;;;18.74;98.05;101045.31;5096908;28;20036;-56
2022/08/05 02:53:04;;;;;;;29.88;17.65;;;;;;;18.77;98.85;101034.13;5097053;28;20076;-57
2022/08/05 02:55:32;;;;;;;27.90;18.20;;;;;;;18.60;97.55;101028.28;5096933;28;20065;-57
2022/08/05 02:58:00;;;;;;;30.02;17.90;;;;;;;18.62;97.81;101002.06;5096665;28;20072;-57
2022/08/05 03:00:28;;;;;;;31.88;19.40;;;;;;;18.75;99.42;100974.41;5096870;28;20131;-57
2022/08/05 03:02:56;;;;;;;30.10;18.38;;;;;;;18.82;99.57;100936.84;5096854;28;20044;-57
2022/08/05 03:05:23;;;;;;;34.65;20.23;;;;;;;18.87;99.70;100888.69;5096719;28;20439;-57
2022/08/05 03:07:50;;;;;;;36.47;22.15;;;;;;;18.86;98.88;100878.94;5096588;28;20513;-57
2022/08/05 03:10:17;;;;;;;40.92;23.85;;;;;;;18.89;98.80;100875.88;5095074;28;20568;-57
2022/08/05 03:12:44;;;;;;;44.92;24.70;;;;;;;18.99;98.37;100860.13;5096925;28;20082;-57
2022/08/05 03:15:11;;;;;;;42.90;23.52;;;;;;;18.92;98.44;100854.78;5096704;28;20051;-56
2022/08/05 03:17:38;;;;;;;44.88;25.05;;;;;;;18.73;98.13;100856.38;5096411;28;20036;-57
2022/08/05 03:20:05;;;;;;;46.75;25.80;;;;;;;18.66;98.86;100863.59;5096326;28;20489;-56
2022/08/05 03:22:32;;;;;;;52.70;26.38;;;;;;;18.70;99.73;100882.81;5096350;28;20048;-56
2022/08/05 03:25:00;;;;;;;44.15;26.25;;;;;;;18.78;100.00;100904.94;5096328;28;20105;-57
2022/08/05 03:27:26;;;;;;;45.97;24.70;;;;;;;18.85;100.00;100912.25;5096621;28;20048;-56
2022/08/05 03:29:53;;;;;;;41.80;24.83;;;;;;;18.90;100.00;100907.06;5096298;28;20054;-57
2022/08/05 03:32:20;;;;;;;29.88;17.33;;;;;;;18.72;98.61;100908.47;5093683;28;20079;-56
2022/08/05 03:34:47;;;;;;;32.42;19.60;;;;;;;18.79;98.10;100936.19;5113983;28;20409;-56
2022/08/05 03:37:14;;;;;;;42.55;19.27;;;;;;;18.92;99.46;100959.59;5116206;28;20039;-56
2022/08/05 03:39:58;;;;;;;31.65;19.08;;;;;;;18.89;96.70;100957.31;5115782;28;20073;-55
2022/08/05 03:42:26;;;;;;;37.25;20.55;;;;;;;18.94;97.25;100965.59;5116573;28;20119;-56
2022/08/05 03:44:52;;;;;;;35.92;21.70;;;;;;;18.95;99.19;100986.06;5115570;27;20172;-56
2022/08/05 03:47:19;;;;;;;36.03;20.40;;;;;;;19.00;96.77;100993.53;5116282;28;20043;-55
2022/08/05 03:49:46;;;;;;;39.83;22.10;;;;;;;18.99;97.47;101000.78;5116311;28;20055;-55
2022/08/05 03:52:20;;;;;;;40.17;22.80;;;;;;;19.06;97.75;101002.63;5114821;28;20447;-55
2022/08/05 03:55:00;;;;;;;38.45;22.38;;;;;;;19.03;96.83;101005.72;5115206;28;20066;-55
2022/08/05 03:57:32;;;;;;;38.40;23.27;;;;;;;19.04;96.73;100992.06;5116042;28;20431;-55
2022/08/05 04:00:05;;;;;;;36.40;24.17;;;;;;;18.95;99.58;100983.38;5116153;28;20058;-56
2022/08/05 04:02:45;;;;;;;44.38;24.95;;;;;;;18.86;99.78;100970.31;5115999;28;20084;-55
2022/08/05 04:05:13;;;;;;;42.45;25.38;;;;;;;18.89;99.24;100970.75;5115554;28;20039;-55
2022/08/05 04:07:41;;;;;;;44.30;26.00;;;;;;;18.94;100.00;100967.47;5115603;28;20047;-55
2022/08/05 04:10:09;;;;;;;43.25;23.67;;;;;;;18.84;99.73;100958.97;5115669;28;20036;-55
2022/08/05 04:12:36;;;;;;;39.58;23.10;;;;;;;18.83;99.10;100931.25;5115924;28;20096;-56
2022/08/05 04:15:02;;;;;;;40.40;23.55;;;;;;;18.77;100.00;100927.50;5115677;28;20397;-55
2022/08/05 04:17:29;;;;;;;44.00;23.58;;;;;;;18.67;100.00;100928.91;5115766;28;20048;-55
2022/08/05 04:19:55;;;;;;;54.22;23.77;;;;;;;18.57;100.00;100937.34;5101388;28;20046;-55
2022/08/05 04:22:22;;;;;;;41.65;22.50;;;;;;;18.47;100.00;100928.88;5095086;28;20482;-55
2022/08/05 04:24:49;;;;;;;38.58;21.02;;;;;;;18.40;100.00;100907.34;5095428;28;20052;-56
2022/08/05 04:27:16;;;;;;;34.25;17.20;;;;;;;18.44;100.00;100897.03;5094763;28;20559;-56
2022/08/05 04:29:43;;;;;;;32.95;17.55;;;;;;;18.53;100.00;100898.50;5095104;28;20444;-56
2022/08/05 04:32:10;;;;;;;34.03;19.27;;;;;;;18.44;100.00;100931.94;5094305;28;20097;-56
2022/08/05 04:34:37;;;;;;;33.50;17.17;;;;;;;18.40;100.00;100961.06;5095153;28;20048;-56
2022/08/05 04:37:05;;;;;;;29.48;16.92;;;;;;;18.48;100.00;100960.06;5094772;28;20051;-57
2022/08/05 04:39:33;;;;;;;28.45;17.00;;;;;;;18.48;100.00;100934.03;5094958;28;20040;-56
2022/08/05 04:41:59;;;;;;;36.63;17.48;;;;;;;18.45;100.00;100952.41;5094551;28;20044;-57
2022/08/05 04:44:26;;;;;;;28.75;15.55;;;;;;;18.33;99.47;100946.78;5094744;28;20040;-56
2022/08/05 04:46:53;;;;;;;28.10;16.02;;;;;;;18.42;100.00;100946.38;5094881;28;20055;-56
2022/08/05 04:49:20;;;;;;;28.40;14.45;;;;;;;18.40;100.00;100950.31;5094738;28;20044;-56
2022/08/05 04:51:47;;;;;;;34.45;14.80;;;;;;;18.42;99.59;100943.69;5094570;28;20543;-56
2022/08/05 04:54:13;;;;;;;26.67;15.05;;;;;;;18.51;100.00;100940.84;5094578;28;20055;-56
2022/08/05 04:56:40;;;;;;;37.22;17.13;;;;;;;18.63;100.00;100959.88;5094019;28;20044;-56
2022/08/05 04:59:07;;;;;;;33.33;17.35;;;;;;;18.69;100.00;100957.22;5094058;28;20490;-56
2022/08/05 05:01:34;;;;;;;35.28;18.27;;;;;;;18.63;100.00;100954.50;5094563;28;20493;-56
2022/08/05 05:04:00;;;;;;;35.45;19.02;;;;;;;18.60;100.00;100961.94;5093842;28;20040;-56
2022/08/05 05:06:27;;;;;;;35.28;18.35;;;;;;;18.63;100.00;100958.06;5094421;28;20052;-56
2022/08/05 05:08:54;;;;;;;35.88;19.92;;;;;;;18.79;99.45;100952.31;5076138;28;20040;-56
2022/08/05 05:11:21;;;;;;;36.05;18.67;;;;;;;18.85;100.00;100942.63;5092985;28;20058;-56
2022/08/05 05:13:47;;;;;;;39.08;20.65;;;;;;;18.80;99.42;100942.38;5093800;28;20047;-56
2022/08/05 05:16:14;;;;;;;37.72;18.75;;;;;;;18.87;98.87;100951.31;5094432;28;20043;-56
2022/08/05 05:18:42;;;;;;;38.53;20.50;;;;;;;18.85;98.74;100945.31;5093784;28;20035;-56
2022/08/05 05:21:18;;;;;;;46.45;19.65;;;;;;;18.82;100.00;100942.22;5093791;28;20063;-56
2022/08/05 05:23:44;;;;;;;41.00;21.65;;;;;;;18.88;98.24;100947.63;5094019;28;20109;-56
2022/08/05 05:26:12;;;;;;;38.15;22.98;;;;;;;18.88;98.36;100952.13;5094211;28;20040;-56
2022/08/05 05:28:38;;;;;;;44.17;22.15;;;;;;;18.89;98.34;100960.00;5094115;28;20101;-56
2022/08/05 05:31:05;;;;;;;43.10;21.10;;;;;;;18.77;97.44;100966.97;5093959;28;20136;-56
2022/08/05 05:33:32;;;;;;;40.45;21.95;;;;;;;18.63;97.37;100962.56;5093520;28;20088;-56
2022/08/05 05:35:59;;;;;;;39.25;21.20;;;;;;;18.60;97.56;100969.19;5114186;28;20555;-56
2022/08/05 05:38:25;;;;;;;41.55;22.42;;;;;;;18.55;97.56;100969.78;5114057;28;20052;-56
2022/08/05 05:40:54;;;;;;;38.28;22.38;;;;;;;18.67;97.64;100963.84;5113494;28;20151;-56
2022/08/05 05:43:21;;;;;;;45.13;23.35;;;;;;;18.77;98.87;100965.13;5113350;28;20074;-56
2022/08/05 05:45:48;;;;;;;51.15;27.42;;;;;;;18.80;98.57;100978.13;5112648;28;20043;-55
2022/08/05 05:48:15;;;;;;;52.28;28.38;;;;;;;18.81;100.00;100979.03;5114048;28;20051;-56
2022/08/05 05:50:41;;;;;;;50.35;30.73;;;;;;;18.74;97.62;100981.63;5113939;28;20382;-56
2022/08/05 05:53:10;;;;;;;53.47;30.77;;;;;;;18.75;97.49;100988.66;5113988;28;20039;-56
2022/08/05 05:55:36;;;;;;;54.65;31.17;;;;;;;18.75;98.57;100998.59;5114006;28;20047;-55
2022/08/05 05:58:03;;;;;;;47.80;27.98;;;;;;;18.60;97.99;101001.44;5114164;28;20550;-55
2022/08/05 06:00:30;;;;;;;47.50;27.38;;;;;;;18.58;98.52;101000.81;5113656;28;20052;-55
2022/08/05 06:02:56;;;;;;;55.28;30.17;;;;;;;18.50;98.42;100992.91;5113722;28;20431;-59
2022/08/05 06:05:23;;;;;;;66.20;33.08;;;;;;;18.50;99.65;100990.22;5113799;28;20063;-56
2022/08/05 06:07:50;;;;;;;70.43;36.90;;;;;;;18.60;100.00;100996.06;5095426;28;20440;-56
2022/08/05 06:10:17;;;;;;;71.75;38.38;;;;;;;18.54;99.23;100994.19;5113520;28;20135;-56
2022/08/05 06:12:43;;;;;;;70.63;38.83;;;;;;;18.64;100.00;100988.44;5113474;28;20116;-55
2022/08/05 06:15:10;;;;;;;74.82;36.80;;;;;;;18.50;98.32;100995.59;5113613;28;20040;-55
2022/08/05 06:17:40;;;;;;;74.35;37.33;;;;;;;18.34;98.05;100996.78;5105394;28;20040;-55
2022/08/05 06:20:08;;;;;;;75.28;38.00;;;;;;;18.32;98.06;100996.13;5093081;28;20075;-55
2022/08/05 06:22:34;;;;;;;75.90;36.47;;;;;;;18.32;97.85;100996.97;5089700;28;20086;-55
2022/08/05 06:25:03;;;;;;;63.65;35.20;;;;;;;18.32;98.72;101010.41;5090015;28;20040;-53
2022/08/05 06:27:29;;;;;;;61.80;34.25;;;;;;;18.42;98.16;101018.91;5085442;28;20081;-53
2022/08/05 06:29:56;;;;;;;68.55;34.35;;;;;;;18.37;97.70;101024.06;5071734;28;20060;-53
2022/08/05 06:32:23;;;;;;;74.00;39.03;;;;;;;18.42;98.26;101026.97;5092597;28;20047;-51
2022/08/05 06:34:49;;;;;;;105.15;46.67;;;;;;;18.39;97.87;101031.91;5082749;28;20061;-50
2022/08/05 06:37:16;;;;;;;122.15;53.78;;;;;;;18.37;98.03;101037.50;5072775;28;20094;-51
2022/08/05 06:39:43;;;;;;;125.20;57.40;;;;;;;18.46;98.29;101031.94;5089911;28;20397;-52
2022/08/05 06:42:12;;;;;;;131.15;56.88;;;;;;;18.40;96.76;101026.34;5085659;28;20071;-50
2022/08/05 06:44:39;;;;;;;139.52;59.20;;;;;;;18.44;96.26;101037.50;5073374;28;20094;-50
2022/08/05 06:47:05;;;;;;;111.43;48.63;;;;;;;18.24;95.39;101040.09;5072601;28;20045;-51
2022/08/05 06:49:32;;;;;;;89.40;41.00;;;;;;;18.18;95.47;101047.06;5074035;28;20105;-51
2022/08/05 06:51:59;;;;;;;80.55;36.88;;;;;;;18.33;95.41;101051.50;5098233;28;20049;-49
2022/08/05 06:54:26;;;;;;;71.97;37.17;;;;;;;18.27;95.21;101039.69;5088515;28;20390;-50
2022/08/05 06:56:53;;;;;;;73.90;36.30;;;;;;;18.21;95.05;101043.19;5091447;28;20066;-52
2022/08/05 06:59:20;;;;;;;87.35;43.20;;;;;;;18.06;94.51;101045.13;5077694;28;20098;-52
2022/08/05 07:01:47;;;;;;;93.75;39.50;;;;;;;17.96;95.25;101042.81;5091522;28;20044;-55
2022/08/05 07:04:14;;;;;;;83.82;41.63;;;;;;;17.87;94.76;101042.13;5090630;28;20514;-54
2022/08/05 07:06:40;;;;;;;89.18;42.55;;;;;;;17.87;95.79;101047.47;5095678;28;20085;-56
2022/08/05 07:09:07;;;;;;;103.82;49.92;;;;;;;17.86;96.80;101051.19;5081068;28;20482;-56
2022/08/05 07:11:34;;;;;;;99.32;50.13;;;;;;;17.89;96.03;101056.16;5090017;28;20072;-55
2022/08/05 07:16:48;;;;;;;119.10;57.03;;;;;;;17.72;95.79;101068.16;5080174;28;20058;-55
2022/08/05 07:19:16;;;;;;;123.00;57.20;;;;;;;17.76;96.55;101066.78;5094486;28;20078;-56
2022/08/05 07:21:52;;;;;;;118.82;55.58;;;;;;;17.81;96.21;101073.22;5092484;28;20040;-56
2022/08/05 07:24:18;;;;;;;108.65;51.40;;;;;;;17.90;96.02;101079.31;5075660;28;20573;-56
2022/08/05 07:26:46;;;;;;;82.57;43.97;;;;;;;17.97;95.38;101077.50;5076752;28;20044;-56
2022/08/05 07:29:13;;;;;;;74.03;39.47;;;;;;;18.01;93.94;101084.13;5075939;28;20482;-56
2022/08/05 07:31:40;;;;;;;67.32;34.58;;;;;;;17.92;92.73;101089.81;5076181;28;20074;-56
2022/08/05 07:34:07;;;;;;;53.38;29.05;;;;;;;17.88;92.78;101100.13;5081545;28;20159;-56
2022/08/05 07:36:34;;;;;;;46.00;24.92;;;;;;;17.95;93.34;101098.31;5079001;28;20049;-55
2022/08/05 07:39:05;;;;;;;45.38;22.80;;;;;;;17.91;93.36;101109.66;5090647;28;20127;-55
2022/08/05 07:41:32;;;;;;;35.55;17.45;;;;;;;17.73;91.54;101107.38;5093772;28;20116;-57
2022/08/05 07:44:00;;;;;;;33.60;17.45;;;;;;;17.67;92.37;101118.91;5094921;28;20072;-56
2022/08/05 07:46:29;;;;;;;47.45;18.63;;;;;;;17.71;90.93;101117.50;5095675;28;20106;-56
2022/08/05 07:48:59;;;;;;;31.95;16.65;;;;;;;17.69;92.45;101117.69;5089289;28;20126;-55
2022/08/05 07:51:25;;;;;;;28.55;14.40;;;;;;;17.67;91.39;101119.72;5080518;28;20040;-55
2022/08/05 07:53:52;;;;;;;30.20;13.32;;;;;;;17.68;90.44;101128.59;5088437;28;20477;-55
2022/08/05 07:56:19;;;;;;;30.55;11.93;;;;;;;17.60;89.87;101130.38;5095582;28;20044;-55
2022/08/05 07:58:46;;;;;;;24.70;11.27;;;;;;;17.63;89.41;101135.38;5095172;28;20040;-55
2022/08/05 08:01:13;;;;;;;25.33;10.98;;;;;;;17.72;89.98;101137.91;5093563;28;20047;-56
2022/08/05 08:03:39;;;;;;;25.50;9.98;;;;;;;17.72;89.47;101148.66;5093963;28;20048;-55
2022/08/05 08:06:06;;;;;;;22.30;10.48;;;;;;;17.63;88.57;101150.66;5101739;28;20044;-55
2022/08/05 08:08:33;;;;;;;33.25;11.23;;;;;;;17.53;89.12;101148.25;5082330;28;20444;-54
2022/08/05 08:11:00;;;;;;;25.02;10.40;;;;;;;17.58;89.11;101158.44;5075653;28;20104;-54
2022/08/05 08:13:27;;;;;;;24.92;10.90;;;;;;;17.59;89.14;101155.56;5078710;28;20048;-56
2022/08/05 08:15:53;;;;;;;28.25;10.30;;;;;;;17.61;88.94;101161.56;5091365;28;20037;-56
2022/08/05 08:18:20;;;;;;;27.52;9.73;;;;;;;17.53;88.53;101171.56;5094058;28;20651;-56
2022/08/05 08:20:50;;;;;;;24.75;9.68;;;;;;;17.48;87.84;101169.44;5094853;28;20130;-56
2022/08/05 08:23:17;;;;;;;23.77;8.95;;;;;;;17.46;87.92;101177.69;5090968;28;20418;-55
2022/08/05 08:25:45;;;;;;;34.67;9.98;;;;;;;17.32;88.50;101185.75;5091220;28;20048;-56
2022/08/05 08:28:12;;;;;;;32.33;9.48;;;;;;;17.39;89.68;101179.47;5094061;28;20105;-55
2022/08/05 08:30:39;;;;;;;27.58;9.98;;;;;;;17.55;89.12;101177.56;5088574;28;20082;-56
2022/08/05 08:33:08;;;;;;;17.63;7.75;;;;;;;17.47;86.12;101189.25;5074394;28;20491;-56
2022/08/05 08:35:37;;;;;;;23.63;7.40;;;;;;;17.47;87.21;101189.25;5108813;28;20147;-55
2022/08/05 08:38:03;;;;;;;17.35;6.90;;;;;;;17.53;86.53;101187.66;5114983;28;20135;-55
2022/08/05 08:40:34;;;;;;;19.17;6.80;;;;;;;17.55;86.89;101190.97;5114710;28;20051;-56
2022/08/05 08:43:03;;;;;;;24.38;6.70;;;;;;;17.49;84.84;101186.38;5114792;28;20054;-55
2022/08/05 08:45:31;;;;;;;30.05;6.72;;;;;;;17.51;83.99;101189.72;5114788;28;20055;-54
2022/08/05 08:48:01;;;;;;;23.92;6.15;;;;;;;17.54;83.79;101190.16;5097141;28;20044;-57
2022/08/05 08:50:29;;;;;;;18.95;6.35;;;;;;;17.58;83.20;101199.47;5094346;28;20504;-56
2022/08/05 08:53:03;;;;;;;20.40;6.30;;;;;;;17.71;85.41;101196.13;5094583;28;20051;-57
2022/08/05 08:55:31;;;;;;;18.42;6.60;;;;;;;17.86;83.63;101206.81;5094576;28;20055;-55
2022/08/05 08:58:00;;;;;;;19.13;6.85;;;;;;;17.92;82.94;101202.53;5093767;28;20044;-56
2022/08/05 09:00:27;;;;;;;29.45;7.90;;;;;;;18.11;83.75;101207.28;5100547;28;20441;-55
2022/08/05 09:02:55;;;;;;;22.52;7.05;;;;;;;18.19;83.29;101217.03;5094246;28;20040;-56
2022/08/05 09:05:23;;;;;;;18.27;7.25;;;;;;;18.21;82.53;101218.53;5093702;28;20044;-54
2022/08/05 09:07:51;;;;;;;19.95;6.85;;;;;;;18.22;83.42;101214.81;5094415;28;20044;-55
2022/08/05 09:10:19;;;;;;;22.20;6.80;;;;;;;18.10;81.05;101227.09;5093671;28;20075;-55
2022/08/05 09:12:46;;;;;;;21.35;6.47;;;;;;;18.24;81.97;101230.72;5094158;28;20040;-55
2022/08/05 09:15:13;;;;;;;18.88;6.85;;;;;;;18.26;82.77;101241.28;5094237;28;20040;-55
2022/08/05 09:17:40;;;;;;;21.45;6.80;;;;;;;18.42;81.87;101243.69;5094189;28;20054;-55
2022/08/05 09:20:08;;;;;;;17.45;6.75;;;;;;;18.36;81.12;101247.16;5092688;28;20093;-55
2022/08/05 09:23:11;;;;;;;33.85;6.32;;;;;;;18.38;82.38;101245.94;5094331;28;20097;-55
2022/08/05 09:25:40;;;;;;;20.08;6.30;;;;;;;18.32;80.78;101244.03;5094208;28;20394;-55
2022/08/05 09:28:12;;;;;;;24.38;6.85;;;;;;;18.09;80.09;101249.59;5093543;28;20078;-57
2022/08/05 09:30:57;;;;;;;16.25;6.72;;;;;;;17.90;81.43;101251.06;5093306;28;20048;-55
2022/08/05 09:33:24;;;;;;;17.10;6.40;;;;;;;17.89;82.55;101253.94;5089710;28;20051;-55
2022/08/05 09:36:06;;;;;;;20.25;6.90;;;;;;;17.98;85.37;101250.94;5086766;28;20060;-55
2022/08/05 09:38:33;;;;;;;16.02;6.82;;;;;;;18.14;84.01;101260.59;5073160;28;20079;-55
2022/08/05 09:41:05;;;;;;;19.50;6.60;;;;;;;18.01;83.11;101263.97;5071919;28;20071;-55
2022/08/05 09:43:33;;;;;;;;;;;;;;;18.02;82.60;101272.84;5072471;28;20053;-56
2022/08/05 09:46:01;;;;;;;17.45;6.80;;;;;;;18.00;82.09;101274.91;5076938;28;19928;-60
2022/08/05 09:48:32;;;;;;;19.25;6.78;;;;;;;18.01;81.50;101277.41;5092953;28;20052;-56
2022/08/05 09:51:01;;;;;;;19.87;6.77;;;;;;;18.06;81.36;101276.00;5093201;28;20125;-56
2022/08/05 09:53:44;;;;;;;20.00;6.95;;;;;;;18.10;81.16;101286.16;5093668;28;20444;-56
2022/08/05 09:56:11;;;;;;;19.95;6.30;;;;;;;18.13;80.60;101290.31;5093173;28;20127;-55
2022/08/05 09:58:39;;;;;;;19.52;6.38;;;;;;;18.26;81.35;101292.31;5093268;28;20067;-56
2022/08/05 10:01:07;;;;;;;16.80;5.85;;;;;;;18.25;81.07;101291.47;5093250;28;20048;-55
2022/08/05 10:03:34;;;;;;;17.65;5.78;;;;;;;18.27;80.32;101288.59;5092732;28;20067;-56
2022/08/05 10:06:04;;;;;;;17.65;5.63;;;;;;;18.39;80.65;101297.78;5093011;28;20382;-56
2022/08/05 10:08:33;;;;;;;;;;;;;;;18.45;79.44;101296.22;5092677;28;20040;-56
2022/08/05 10:11:14;;;;;;;18.40;5.55;;;;;;;18.56;80.17;101306.44;5092909;28;19923;-55
2022/08/05 10:13:42;;;;;;;13.43;5.28;;;;;;;18.52;78.38;101303.31;5093013;28;20433;-55
2022/08/05 10:16:31;;;;;;;16.52;5.32;;;;;;;18.69;77.58;101305.72;5089749;28;20062;-56
2022/08/05 10:18:59;;;;;;;15.45;5.38;;;;;;;18.80;76.81;101314.06;5091408;28;20043;-56
2022/08/05 10:21:26;;;;;;;13.18;4.80;;;;;;;19.14;75.96;101314.38;5092477;28;20056;-56
2022/08/05 10:23:54;;;;;;;17.67;5.68;;;;;;;19.17;74.90;101320.19;5092369;28;20094;-55
2022/08/05 10:26:22;;;;;;;13.98;5.95;;;;;;;19.37;74.50;101316.75;5092084;28;20106;-56
2022/08/05 10:28:49;;;;;;;12.65;5.10;;;;;;;19.56;74.38;101328.69;5092383;28;20044;-56
2022/08/05 10:31:16;;;;;;;14.55;4.72;;;;;;;19.66;73.43;101331.81;5057201;28;20040;-56
2022/08/05 10:33:43;;;;;;;12.65;4.15;;;;;;;19.72;70.34;101344.50;5092024;28;20134;-56
2022/08/05 10:36:10;;;;;;;22.20;4.40;;;;;;;19.88;70.62;101343.34;5090852;28;20501;-56
2022/08/05 10:38:43;;;;;;;12.43;3.70;;;;;;;20.01;67.48;101345.25;5092182;28;20093;-56
2022/08/05 10:41:22;;;;;;;10.38;3.72;;;;;;;20.19;66.99;101343.84;5092307;28;20543;-56
2022/08/05 10:43:57;;;;;;;10.57;4.35;;;;;;;20.37;66.44;101344.09;5092439;28;20143;-56
2022/08/05 10:46:49;;;;;;;10.43;4.43;;;;;;;21.00;64.97;101342.94;5092057;28;20051;-56
2022/08/05 10:49:16;;;;;;;11.23;4.65;;;;;;;21.23;64.33;101337.94;5091954;28;20498;-56
2022/08/05 10:51:46;;;;;;;17.13;6.63;;;;;;;20.74;64.74;101350.00;5092259;28;20089;-56
2022/08/05 10:54:14;;;;;;;24.58;8.73;;;;;;;20.61;68.23;101341.88;5094000;28;20052;-56
2022/08/05 10:56:55;;;;;;;20.48;8.32;;;;;;;20.45;67.96;101351.19;5096015;28;20091;-55
2022/08/05 10:59:27;;;;;;;26.13;10.07;;;;;;;20.44;66.69;101350.31;5095697;28;20052;-56
2022/08/05 11:02:06;;;;;;;22.00;10.10;;;;;;;20.79;67.16;101360.16;5096127;28;20589;-56
2022/08/05 11:04:42;;;;;;;26.17;10.02;;;;;;;21.00;66.71;101359.94;5095184;28;20410;-56
2022/08/05 11:07:14;;;;;;;23.13;11.90;;;;;;;21.37;65.37;101359.47;5095613;28;20075;-56
2022/08/05 11:09:46;;;;;;;23.15;12.10;;;;;;;21.71;63.67;101355.69;5095849;28;20074;-56
2022/08/05 11:15:28;;;;;;;34.05;13.57;;;;;;;22.19;61.82;101362.53;5110088;27;20687;-58
2022/08/05 11:18:32;;;;;;;24.45;11.98;;;;;;;22.35;61.01;101366.63;5108712;28;20067;-56
2022/08/05 11:21:01;;;;;;;27.63;11.45;;;;;;;21.84;60.85;101357.50;5107536;28;20058;-56
2022/08/05 11:23:33;;;;;;;26.40;14.25;;;;;;;22.05;60.98;101361.78;5106322;28;20522;-58
2022/08/05 11:26:08;;;;;;;23.00;9.15;;;;;;;22.37;62.49;101362.66;5109789;28;20044;-58
2022/08/05 11:33:54;;;;;;;20.00;9.55;;;;;;;22.80;58.49;101366.53;5109606;27;20706;-58